Silver Peak Trail, Santa Catalina Island Weather observations

Data are for 10 minute period ending at time listed.
 Day   Time   Solar   Ave.   Ave.  Ave.  Vector    Max.   Stn.    Total
  of    of     Rad.   Air    Rel.  Wind   Wind     Wind   Baro.  Precip.
Year   Day            Temp.  Hum.  Speed  Dir.     Gust   Pres.         
2016   (PST)   W/m2    F      %     mph   deg.      mph    mb.     in.  
------------------------------------------------------------------------
 340    8:30  260.0    54   83.4     4    333.0     6.6    999.0   0.00  
 340    8:40  313.0    55   82.9     5    333.4     7.2    999.0   0.00  
 340    8:50  287.0    56   84.2     3    333.5     5.4    999.0   0.00  
 340    9:00  286.0    56   83.0     5    333.3     7.2    999.0   0.00  
 340    9:10  232.0    55   84.9     6    333.8     9.0    999.0   0.00  
 340    9:20  298.0    54   87.2     7    337.8     9.0    999.0   0.00  
 340    9:30  297.0    54   89.0     6    345.7     9.0    999.0   0.00  
 340    9:40  357.0    56   87.8     4    345.5     6.0    999.0   0.00  
 340    9:50  455.0    57   83.1     4    345.7     7.8    999.0   0.00  
 340   10:00  432.0    59   77.0     2    345.7     4.2    999.0   0.00  
 340   10:10  457.0    60   78.1     2    345.6     4.8    999.0   0.00  
 340   10:20  452.0    57   80.9     4    345.5     4.8    999.0   0.00  
 340   10:30  546.0    56   85.2     3    345.4     6.0    999.0   0.00  
 340   10:40  537.0    58   80.2     5    345.6     7.8    999.0   0.00  
 340   10:50  329.0    56   82.8     4    345.5     5.4    999.0   0.00  
 340   11:00  439.0    54   87.9     6    343.1     8.4    999.0   0.00  
 340   11:10  348.0    54   88.7     4    333.0     6.0    999.0   0.00  
 340   11:20  299.0    56   86.1     3    333.9     6.6    999.0   0.00  
 340   11:30  207.0    54   86.9     3    333.5     6.0    999.0   0.00  
 340   11:40  122.0    54   88.5     2    333.5     3.6    999.0   0.00  
 340   11:50  221.0    55   88.8     2    333.6     3.0    999.0   0.00  
 340   12:00  209.0    56   88.3     3    333.8     5.4    999.0   0.00  
 340   12:10  179.0    57   86.1     4    334.5     7.2    999.0   0.00  
 340   12:20  183.0    57   85.9     2    334.4     4.2    999.0   0.00  
 340   12:30  175.0    57   84.9     4    334.5     7.2    999.0   0.00  
 340   12:40  199.0    56   86.5     6    344.6     9.0    999.0   0.00  
 340   12:50  202.0    56   86.5     5    346.4     7.8    999.0   0.00  
 340   13:00  204.0    57   85.4     4    346.4     7.8    999.0   0.00  
 340   13:10  204.0    57   84.2     5    346.5     7.8    999.0   0.00  
 340   13:20  275.0    58   84.2     4    346.6     9.6    999.0   0.00  
 340   13:30  231.0    57   83.7     5    346.7     9.6    999.0   0.00  
 340   13:40  337.0    57   85.3     7    354.7    11.3    999.0   0.00  
 340   13:50  321.0    58   84.4     6      5.1    10.2    999.0   0.00  
 340   14:00  408.0    58   82.3     3      4.2     7.8    999.0   0.00  
 340   14:10  320.0    56   85.8     3      4.2     5.4    999.0   0.00  
 340   14:20  331.0    57   85.0     3      4.0     5.4    999.0   0.00  
 340   14:30  257.0    55   87.3     2      3.9     4.8    999.0   0.00  
 340   14:40  227.0    57   87.9     3      4.0     6.6    999.0   0.00  
 340   14:50  185.0    58   84.5     6      4.2     9.0    999.0   0.00  
 340   15:00  160.0    57   84.6     6      4.3    10.2    999.0   0.00  
 340   15:10  136.0    56   86.6     6      4.7     8.4    999.0   0.00  
 340   15:20  171.0    56   87.7     6      4.4     8.4    999.0   0.00  
 340   15:30  161.0    56   86.8     6      4.5     9.0    999.0   0.00  
 340   15:40  111.0    56   87.1     6      5.1    11.3    999.0   0.00  
 340   15:50  113.0    56   87.1     6      4.8     9.6    999.0   0.00  
 340   16:00  121.0    55   87.5     2      4.3     4.8    999.0   0.00  
 340   16:10  103.0    56   87.7     3      4.1     4.8    999.0   0.00  
 340   16:20   52.0    55   88.2     3      4.0     4.8    999.0   0.00  
 340   16:30   26.0    54   89.4     6      4.2     8.4    999.0   0.00  
 340   16:40   16.0    53   90.9     7      4.7     9.6    999.0   0.00  
 340   16:50    8.0    52   92.0     6      4.8     7.8    999.0   0.00  
 340   17:00    3.0    52   92.7     5      4.5     7.2    999.0   0.00  
 340   17:10    1.0    52   93.2     5      4.5     6.0    999.0   0.00  
 340   17:20    0.0    52   93.6     4      4.4     7.2    999.0   0.00  
 340   17:30    0.0    51   93.8     4      4.2     5.4    999.0   0.00  
 340   17:40    0.0    51   93.6     3      4.2     4.8    999.0   0.00  
 340   17:50    0.0    51   88.1     4      4.2     6.0    999.0   0.00  
 340   18:00    0.0    52   87.4     3      4.3     5.4    999.0   0.00  
 340   18:10    0.0    53   80.9     4      4.2     4.8    999.0   0.00  
 340   18:20    0.0    52   83.2     4      4.2     5.4    999.0   0.00  
 340   18:30    0.0    54   76.4     3      4.2     4.2    999.0   0.00  
 340   18:40    0.0    52   88.5     2      4.2     4.2    999.0   0.00  
 340   18:50    0.0    51   88.6     3      4.1     5.4    999.0   0.00  
 340   19:00    0.0    51   90.0     8    296.5    10.8    999.0   0.00  
 340   19:10    0.0    51   92.8    10    221.4    12.5    999.0   0.00  
 340   19:20    0.0    51   93.9    11    188.7    13.1    999.0   0.00  
 340   19:30    0.0    51   94.4     7    184.1    11.9    999.0   0.00  
 340   19:40    0.0    50   94.7     4    184.4     7.8    999.0   0.00  
 340   19:50    0.0    50   94.8     4    184.2     7.8    999.0   0.00  
 340   20:00    0.0    50   94.9     4    184.4     6.6    999.0   0.00  
 340   20:10    0.0    50   94.8     7    291.3     8.4    999.0   0.00  
 340   20:20    0.0    50   94.9     9    266.3    11.3    999.0   0.00  
 340   20:30    0.0    50   95.0     6    307.3     7.8    999.0   0.00  
 340   20:40    0.0    50   95.1     6    290.6    10.8    999.0   0.00  
 340   20:50    0.0    50   95.2     8    263.0    11.3    999.0   0.00  
 340   21:00    0.0    50   95.2     4    312.2     6.6    999.0   0.00  
 340   21:10    0.0    50   95.2     4    313.2     7.2    999.0   0.00  
 340   21:20    0.0    50   95.3     2    315.9     4.8    999.0   0.00  
 340   21:30    0.0    49   95.3     3    315.9     7.2    999.0   0.00  
 340   21:40    0.0    49   95.3     4    315.2     5.4    999.0   0.00  
 340   21:50    0.0    49   95.4     4    315.4     6.6    999.0   0.00  
 340   22:00    0.0    49   95.4     5    315.9     7.8    999.0   0.00  
 340   22:10    0.0    49   95.4     7    328.1    10.2    999.0   0.00  
 340   22:20    0.0    50   95.5     5    332.8     9.0    999.0   0.00  
 340   22:30    0.0    50   95.5     5    333.6     7.8    999.0   0.00  
 340   22:40    0.0    50   95.5     6    333.8    10.2    999.0   0.00  
 340   22:50    0.0    50   95.5     3    333.4     6.6    999.0   0.00  
 340   23:00    0.0    49   95.5     4    335.1     9.6    999.0   0.00  
 340   23:10    0.0    50   95.5     7    346.1    11.9    999.0   0.00  
 340   23:20    0.0    50   95.6    10    357.7    13.7    999.0   0.00  
 340   23:30    0.0    50   95.6     6    346.5    10.2    999.0   0.00  
 340   23:40    0.0    50   95.6     5    346.0     8.4    999.0   0.00  
 340   23:50    0.0    50   95.6     5    346.0     7.2    999.0   0.00  
 341    0:00    0.0    50   95.6     4    345.9     6.0    999.0   0.00  
 341    0:10    0.0    50   95.6     2    345.8     4.8    999.0   0.00  
 341    0:20    0.0    50   95.6     2    345.9     4.2    999.0   0.00  
 341    0:30    0.0    50   95.6     4    345.8     6.0    999.0   0.00  
 341    0:40    0.0    50   95.6     2    345.7     4.2    999.0   0.00  
 341    0:50    0.0    50   95.6     1    345.7     3.6    999.0   0.00  
 341    1:00    0.0    50   95.6     3    345.7     4.8    999.0   0.00  
 341    1:10    0.0    50   95.6     5    341.4     7.8    999.0   0.00  
 341    1:20    0.0    50   95.6     8    305.3     9.6    999.0   0.00  
 341    1:30    0.0    49   95.6     6    301.3     8.4    999.0   0.00  
 341    1:40    0.0    50   95.6     5    302.7     7.2    999.0   0.00  
 341    1:50    0.0    49   95.5     5    303.0     7.8    999.0   0.00  
 341    2:00    0.0    50   95.5     6    302.9     7.2    999.0   0.00  
 341    2:10    0.0    50   95.4     4    303.0     6.0    999.0   0.00  
 341    2:20    0.0    50   95.2     3    307.3     4.8    999.0   0.00  
 341    2:30    0.0    50   94.8     2    313.9     3.6    999.0   0.00  
 341    2:40    0.0    50   94.4     3    316.0     4.8    999.0   0.00  
 341    2:50    0.0    50   94.0     2    316.6     3.6    999.0   0.00  
 341    3:00    0.0    50   93.6     2    316.7     3.6    999.0   0.00  
 341    3:10    0.0    50   93.4     4    316.3     7.2    999.0   0.00  
 341    3:20    0.0    50   93.2     6    311.4     7.8    999.0   0.00  
 341    3:30    0.0    49   92.7     5    311.4     9.0    999.0   0.00  
 341    3:40    0.0    49   92.3     5    311.5     8.4    999.0   0.00  
 341    3:50    0.0    49   91.6     4    312.0     6.0    999.0   0.00  
 341    4:00    0.0    50   90.8     4    312.2     6.0    999.0   0.00  
 341    4:10    0.0    50   90.7     5    312.5     7.2    999.0   0.00  
 341    4:20    0.0    50   91.3     5    312.8     6.6    999.0   0.00  
 341    4:30    0.0    50   91.5     4    312.8     6.0    999.0   0.00  
 341    4:40    0.0    50   91.8     7    311.6     9.6    999.0   0.00  
 341    4:50    0.0    49   91.9     9    295.6    11.9    999.0   0.00  
 341    5:00    0.0    49   92.3    10    286.7    11.9    999.0   0.00  
 341    5:10    0.0    49   92.8     9    285.0    11.9    999.0   0.00  
 341    5:20    0.0    49   93.1     9    290.0    11.3    999.0   0.00  
 341    5:30    0.0    49   93.1     9    281.0    11.3    999.0   0.00  
 341    5:40    0.0    49   93.0     8    293.6    10.8    999.0   0.00  
 341    5:50    0.0    49   92.9     7    310.6     9.6    999.0   0.00  
 341    6:00    0.0    49   92.9     7    316.3    11.9    999.0   0.00  
 341    6:10    0.0    48   92.7     5    316.2     9.0    999.0   0.00  
 341    6:20    0.0    48   92.7     4    315.9     8.4    999.0   0.00  
 341    6:30    0.0    48   92.8     7    307.1    10.2    999.0   0.00  
 341    6:40    1.0    49   92.7     9    293.3    11.3    999.0   0.00  
 341    6:50    2.0    49   92.6     9    299.6    10.2    999.0   0.00  
 341    7:00    6.0    49   92.8     9    294.1    10.8    999.0   0.00  
 341    7:10   18.0    49   92.9     8    301.1    10.2    999.0   0.00  
 341    7:20   47.0    49   93.2     7    302.5     8.4    999.0   0.00  
 341    7:30   81.0    50   93.4     5    303.4     7.8    999.0   0.00  
 341    7:40  102.0    50   93.2     4    313.9     6.6    999.0   0.00  
 341    7:50  150.0    51   92.5     5    317.2     7.8    999.0   0.00  
 341    8:00  164.0    52   90.8     5    318.3     7.8    999.0   0.00  
 341    8:10  181.0    52   88.9     5    319.1     7.2    999.0   0.00  
 341    8:20  210.0    54   86.4     3    319.5     6.0    999.0   0.00  

Return to Silver Peak Trail graphs page.


Western Regional Climate Center,wrcc@dri.edu